Main page
METAR-TAF:

METAR-TAF

Airports :

El Caraño Airport

Quibdó, Colombia

latitude: 05-43N, longitude: 076-37W, elevation: 53 m

Current weather observation

The report was made 55 minutes ago, at 23:00 UTC
Calm wind
Temperature 26°C
Humidity 94%
Pressure 1009 hPa
Visibility: 8000 m
Few clouds at a height of 2400 ft, Cumulonimbus.
Scattered clouds at a height of 2500 ft
thunderstorm, light rain

METAR: SKUI 232300Z 00000KT 8000 -TSRA FEW024CB SCT025 26/25 Q1009 RMK CB/NE

Time: 18:55 (23:55 UTC)


TAF: missing

Weather observations and forecasts of more than 4000 airports (METAR and TAF reports).

The available stations are represented by yellow and red dots on the map.

Hover mouse over dot to see the name of the station.

Then click to see weather observations and forecasts.

To change the map : click on the green buttons with a black cross to zoom in, on the green button with a dash to zoom out, or on the green arrows for adjacent maps.


METAR-TAF: